sensor_id;sensor_type;location;lat;lon;timestamp;temperature;humidity
14099;DHT22;7126;48.458;7.930;2022-11-18T00:01:30;10.20;99.90
14099;DHT22;7126;48.458;7.930;2022-11-18T00:03:56;10.20;99.90
14099;DHT22;7126;48.458;7.930;2022-11-18T00:06:24;10.20;99.90
14099;DHT22;7126;48.458;7.930;2022-11-18T00:08:51;10.30;99.90
14099;DHT22;7126;48.458;7.930;2022-11-18T00:11:18;10.30;99.90
14099;DHT22;7126;48.458;7.930;2022-11-18T00:14:04;10.40;99.90
14099;DHT22;7126;48.458;7.930;2022-11-18T00:16:46;10.50;99.90
14099;DHT22;7126;48.458;7.930;2022-11-18T00:19:12;10.50;99.90
14099;DHT22;7126;48.458;7.930;2022-11-18T00:21:38;10.60;99.90
14099;DHT22;7126;48.458;7.930;2022-11-18T00:24:04;10.60;99.90
14099;DHT22;7126;48.458;7.930;2022-11-18T00:26:30;10.60;99.90
14099;DHT22;7126;48.458;7.930;2022-11-18T00:28:55;10.60;99.90
14099;DHT22;7126;48.458;7.930;2022-11-18T00:31:21;10.60;99.90
14099;DHT22;7126;48.458;7.930;2022-11-18T00:33:46;10.60;99.90
14099;DHT22;7126;48.458;7.930;2022-11-18T00:36:12;10.60;99.90
14099;DHT22;7126;48.458;7.930;2022-11-18T00:38:39;10.60;99.90
14099;DHT22;7126;48.458;7.930;2022-11-18T00:41:14;10.60;99.90
14099;DHT22;7126;48.458;7.930;2022-11-18T00:43:41;10.70;99.90
14099;DHT22;7126;48.458;7.930;2022-11-18T00:46:08;10.70;99.90
14099;DHT22;7126;48.458;7.930;2022-11-18T00:48:35;10.70;99.90
14099;DHT22;7126;48.458;7.930;2022-11-18T00:51:15;10.70;99.90
14099;DHT22;7126;48.458;7.930;2022-11-18T00:53:41;10.70;99.90
14099;DHT22;7126;48.458;7.930;2022-11-18T00:56:08;10.70;99.90
14099;DHT22;7126;48.458;7.930;2022-11-18T00:58:34;10.80;99.90
14099;DHT22;7126;48.458;7.930;2022-11-18T01:00:59;10.80;99.90
14099;DHT22;7126;48.458;7.930;2022-11-18T01:03:27;10.70;99.90
14099;DHT22;7126;48.458;7.930;2022-11-18T01:05:53;10.80;99.90
14099;DHT22;7126;48.458;7.930;2022-11-18T01:08:18;10.70;99.90
14099;DHT22;7126;48.458;7.930;2022-11-18T01:10:45;10.70;99.90
14099;DHT22;7126;48.458;7.930;2022-11-18T01:13:14;10.70;99.90
14099;DHT22;7126;48.458;7.930;2022-11-18T01:15:49;10.70;99.90
14099;DHT22;7126;48.458;7.930;2022-11-18T01:18:17;10.70;99.90
14099;DHT22;7126;48.458;7.930;2022-11-18T01:20:43;10.70;99.90
14099;DHT22;7126;48.458;7.930;2022-11-18T01:23:09;10.70;99.90
14099;DHT22;7126;48.458;7.930;2022-11-18T01:25:36;10.70;99.90
14099;DHT22;7126;48.458;7.930;2022-11-18T01:28:03;10.80;99.90
14099;DHT22;7126;48.458;7.930;2022-11-18T01:30:29;10.80;99.90
14099;DHT22;7126;48.458;7.930;2022-11-18T01:32:57;10.80;99.90
14099;DHT22;7126;48.458;7.930;2022-11-18T01:35:22;10.80;99.90
14099;DHT22;7126;48.458;7.930;2022-11-18T01:37:48;10.90;99.90
14099;DHT22;7126;48.458;7.930;2022-11-18T01:40:13;10.90;99.90
14099;DHT22;7126;48.458;7.930;2022-11-18T01:42:39;10.90;99.90
14099;DHT22;7126;48.458;7.930;2022-11-18T01:45:06;11.00;99.90
14099;DHT22;7126;48.458;7.930;2022-11-18T01:47:47;11.00;99.90
14099;DHT22;7126;48.458;7.930;2022-11-18T01:50:15;11.00;99.90
14099;DHT22;7126;48.458;7.930;2022-11-18T01:52:43;11.00;99.90
14099;DHT22;7126;48.458;7.930;2022-11-18T01:55:23;11.00;99.90
14099;DHT22;7126;48.458;7.930;2022-11-18T01:57:51;11.00;99.90
14099;DHT22;7126;48.458;7.930;2022-11-18T02:00:20;11.00;99.90
14099;DHT22;7126;48.458;7.930;2022-11-18T02:02:46;11.00;99.90
14099;DHT22;7126;48.458;7.930;2022-11-18T02:05:13;11.00;99.90
14099;DHT22;7126;48.458;7.930;2022-11-18T02:07:41;11.00;99.90
14099;DHT22;7126;48.458;7.930;2022-11-18T02:10:08;11.00;99.90
14099;DHT22;7126;48.458;7.930;2022-11-18T02:12:35;10.90;99.90
14099;DHT22;7126;48.458;7.930;2022-11-18T02:15:01;10.90;99.90
14099;DHT22;7126;48.458;7.930;2022-11-18T02:33:37;10.70;99.90
14099;DHT22;7126;48.458;7.930;2022-11-18T02:36:11;10.70;99.90
14099;DHT22;7126;48.458;7.930;2022-11-18T02:38:44;10.70;99.90
14099;DHT22;7126;48.458;7.930;2022-11-18T02:41:16;10.70;99.90
14099;DHT22;7126;48.458;7.930;2022-11-18T02:43:51;10.70;99.90
14099;DHT22;7126;48.458;7.930;2022-11-18T02:46:24;10.70;99.90
14099;DHT22;7126;48.458;7.930;2022-11-18T02:48:52;10.70;99.90
14099;DHT22;7126;48.458;7.930;2022-11-18T02:51:25;10.70;99.90
14099;DHT22;7126;48.458;7.930;2022-11-18T02:53:54;10.70;99.90
14099;DHT22;7126;48.458;7.930;2022-11-18T02:56:20;10.60;99.90
14099;DHT22;7126;48.458;7.930;2022-11-18T02:58:46;10.60;99.90
14099;DHT22;7126;48.458;7.930;2022-11-18T03:01:27;10.60;99.90
14099;DHT22;7126;48.458;7.930;2022-11-18T03:03:53;10.60;99.90
14099;DHT22;7126;48.458;7.930;2022-11-18T03:06:35;10.60;99.90
14099;DHT22;7126;48.458;7.930;2022-11-18T03:11:55;10.70;99.90
14099;DHT22;7126;48.458;7.930;2022-11-18T03:15:16;10.60;99.90
14099;DHT22;7126;48.458;7.930;2022-11-18T03:20:06;10.50;99.90
14099;DHT22;7126;48.458;7.930;2022-11-18T03:22:39;10.50;99.90
14099;DHT22;7126;48.458;7.930;2022-11-18T03:25:35;10.50;99.90
14099;DHT22;7126;48.458;7.930;2022-11-18T03:28:27;10.50;99.90
14099;DHT22;7126;48.458;7.930;2022-11-18T03:31:14;10.50;99.90
14099;DHT22;7126;48.458;7.930;2022-11-18T03:33:47;10.50;99.90
14099;DHT22;7126;48.458;7.930;2022-11-18T03:36:15;10.50;99.90
14099;DHT22;7126;48.458;7.930;2022-11-18T03:38:47;10.40;99.90
14099;DHT22;7126;48.458;7.930;2022-11-18T03:41:16;10.50;99.90
14099;DHT22;7126;48.458;7.930;2022-11-18T03:43:52;10.60;99.90
14099;DHT22;7126;48.458;7.930;2022-11-18T03:46:25;10.60;99.90
14099;DHT22;7126;48.458;7.930;2022-11-18T03:48:54;10.50;99.90
14099;DHT22;7126;48.458;7.930;2022-11-18T03:51:35;10.50;99.90
14099;DHT22;7126;48.458;7.930;2022-11-18T03:54:13;10.50;99.90
14099;DHT22;7126;48.458;7.930;2022-11-18T03:56:48;10.50;99.90
14099;DHT22;7126;48.458;7.930;2022-11-18T03:59:20;10.50;99.90
14099;DHT22;7126;48.458;7.930;2022-11-18T04:01:56;10.60;99.90
14099;DHT22;7126;48.458;7.930;2022-11-18T04:04:24;10.60;99.90
14099;DHT22;7126;48.458;7.930;2022-11-18T04:07:01;10.60;99.90
14099;DHT22;7126;48.458;7.930;2022-11-18T04:09:36;10.60;99.90
14099;DHT22;7126;48.458;7.930;2022-11-18T04:12:08;10.60;99.90
14099;DHT22;7126;48.458;7.930;2022-11-18T04:14:39;10.60;99.90
14099;DHT22;7126;48.458;7.930;2022-11-18T04:17:15;10.70;99.90
14099;DHT22;7126;48.458;7.930;2022-11-18T04:19:41;10.70;99.90
14099;DHT22;7126;48.458;7.930;2022-11-18T04:22:08;10.70;99.90
14099;DHT22;7126;48.458;7.930;2022-11-18T04:24:34;10.70;99.90
14099;DHT22;7126;48.458;7.930;2022-11-18T04:27:00;10.70;99.90
14099;DHT22;7126;48.458;7.930;2022-11-18T04:29:27;10.70;99.90
14099;DHT22;7126;48.458;7.930;2022-11-18T04:31:53;10.70;99.90
14099;DHT22;7126;48.458;7.930;2022-11-18T04:34:18;10.70;99.90
14099;DHT22;7126;48.458;7.930;2022-11-18T04:36:44;10.70;99.90
14099;DHT22;7126;48.458;7.930;2022-11-18T04:39:10;10.80;99.90
14099;DHT22;7126;48.458;7.930;2022-11-18T04:41:35;10.80;99.90
14099;DHT22;7126;48.458;7.930;2022-11-18T04:44:32;10.80;99.90
14099;DHT22;7126;48.458;7.930;2022-11-18T04:47:01;10.80;99.90
14099;DHT22;7126;48.458;7.930;2022-11-18T04:49:28;10.80;99.90
14099;DHT22;7126;48.458;7.930;2022-11-18T04:51:55;10.70;99.90
14099;DHT22;7126;48.458;7.930;2022-11-18T04:54:21;10.80;99.90
14099;DHT22;7126;48.458;7.930;2022-11-18T04:56:47;10.70;99.90
14099;DHT22;7126;48.458;7.930;2022-11-18T04:59:13;10.70;99.90
14099;DHT22;7126;48.458;7.930;2022-11-18T05:01:39;10.70;99.90
14099;DHT22;7126;48.458;7.930;2022-11-18T05:04:05;10.70;99.90
14099;DHT22;7126;48.458;7.930;2022-11-18T05:06:32;10.60;99.90
14099;DHT22;7126;48.458;7.930;2022-11-18T05:08:59;10.60;99.90
14099;DHT22;7126;48.458;7.930;2022-11-18T05:11:26;10.60;99.90
14099;DHT22;7126;48.458;7.930;2022-11-18T05:14:11;10.60;99.90
14099;DHT22;7126;48.458;7.930;2022-11-18T05:16:36;10.50;99.90
14099;DHT22;7126;48.458;7.930;2022-11-18T05:19:03;10.50;99.90
14099;DHT22;7126;48.458;7.930;2022-11-18T05:21:29;10.50;99.90
14099;DHT22;7126;48.458;7.930;2022-11-18T05:23:55;10.50;99.90
14099;DHT22;7126;48.458;7.930;2022-11-18T05:26:20;10.50;99.90
14099;DHT22;7126;48.458;7.930;2022-11-18T05:28:46;10.50;99.90
14099;DHT22;7126;48.458;7.930;2022-11-18T05:31:14;10.40;99.90
14099;DHT22;7126;48.458;7.930;2022-11-18T05:33:40;10.40;99.90
14099;DHT22;7126;48.458;7.930;2022-11-18T05:36:08;10.40;99.90
14099;DHT22;7126;48.458;7.930;2022-11-18T05:38:35;10.40;99.90
14099;DHT22;7126;48.458;7.930;2022-11-18T05:41:00;10.40;99.90
14099;DHT22;7126;48.458;7.930;2022-11-18T05:43:27;10.40;99.90
14099;DHT22;7126;48.458;7.930;2022-11-18T05:45:52;10.20;99.90
14099;DHT22;7126;48.458;7.930;2022-11-18T05:48:18;10.10;99.90
14099;DHT22;7126;48.458;7.930;2022-11-18T05:50:48;10.10;99.90
14099;DHT22;7126;48.458;7.930;2022-11-18T05:53:15;10.10;99.90
14099;DHT22;7126;48.458;7.930;2022-11-18T05:55:46;10.10;99.90
14099;DHT22;7126;48.458;7.930;2022-11-18T05:58:13;10.10;99.90
14099;DHT22;7126;48.458;7.930;2022-11-18T06:00:39;10.00;99.90
14099;DHT22;7126;48.458;7.930;2022-11-18T06:03:11;10.00;99.90
14099;DHT22;7126;48.458;7.930;2022-11-18T06:05:37;10.00;99.90
14099;DHT22;7126;48.458;7.930;2022-11-18T06:08:02;10.00;99.90
14099;DHT22;7126;48.458;7.930;2022-11-18T06:10:32;9.90;99.90
14099;DHT22;7126;48.458;7.930;2022-11-18T06:13:03;9.90;99.90
14099;DHT22;7126;48.458;7.930;2022-11-18T06:15:34;9.90;99.90
14099;DHT22;7126;48.458;7.930;2022-11-18T06:18:21;10.00;99.90
14099;DHT22;7126;48.458;7.930;2022-11-18T06:20:48;10.00;99.90
14099;DHT22;7126;48.458;7.930;2022-11-18T06:23:15;10.00;99.90
14099;DHT22;7126;48.458;7.930;2022-11-18T06:25:40;10.00;99.90
14099;DHT22;7126;48.458;7.930;2022-11-18T06:28:07;10.00;99.90
14099;DHT22;7126;48.458;7.930;2022-11-18T06:30:34;10.00;99.90
14099;DHT22;7126;48.458;7.930;2022-11-18T06:33:00;10.00;99.90
14099;DHT22;7126;48.458;7.930;2022-11-18T06:35:25;10.10;99.90
14099;DHT22;7126;48.458;7.930;2022-11-18T06:37:51;10.10;99.90
14099;DHT22;7126;48.458;7.930;2022-11-18T06:40:17;10.10;99.90
14099;DHT22;7126;48.458;7.930;2022-11-18T06:42:42;10.10;99.90
14099;DHT22;7126;48.458;7.930;2022-11-18T06:45:26;10.10;99.90
14099;DHT22;7126;48.458;7.930;2022-11-18T06:47:56;10.10;99.90
14099;DHT22;7126;48.458;7.930;2022-11-18T06:50:21;10.10;99.90
14099;DHT22;7126;48.458;7.930;2022-11-18T06:52:47;10.10;99.90
14099;DHT22;7126;48.458;7.930;2022-11-18T06:55:12;10.10;99.90
14099;DHT22;7126;48.458;7.930;2022-11-18T06:57:38;10.10;99.90
14099;DHT22;7126;48.458;7.930;2022-11-18T07:00:04;10.10;99.90
14099;DHT22;7126;48.458;7.930;2022-11-18T07:02:30;10.20;99.90
14099;DHT22;7126;48.458;7.930;2022-11-18T07:04:55;10.20;99.90
14099;DHT22;7126;48.458;7.930;2022-11-18T07:07:21;10.20;99.90
14099;DHT22;7126;48.458;7.930;2022-11-18T07:09:46;10.20;99.90
14099;DHT22;7126;48.458;7.930;2022-11-18T07:12:12;10.20;99.90
14099;DHT22;7126;48.458;7.930;2022-11-18T07:14:37;10.20;99.90
14099;DHT22;7126;48.458;7.930;2022-11-18T07:17:03;10.20;99.90
14099;DHT22;7126;48.458;7.930;2022-11-18T07:19:28;10.20;99.90
14099;DHT22;7126;48.458;7.930;2022-11-18T07:21:54;10.20;99.90
14099;DHT22;7126;48.458;7.930;2022-11-18T07:24:21;10.30;99.90
14099;DHT22;7126;48.458;7.930;2022-11-18T07:26:46;10.30;99.90
14099;DHT22;7126;48.458;7.930;2022-11-18T07:29:12;10.30;99.90
14099;DHT22;7126;48.458;7.930;2022-11-18T07:31:37;10.30;99.90
14099;DHT22;7126;48.458;7.930;2022-11-18T07:34:04;10.30;99.90
14099;DHT22;7126;48.458;7.930;2022-11-18T07:36:30;10.30;99.90
14099;DHT22;7126;48.458;7.930;2022-11-18T07:38:58;10.20;99.90
14099;DHT22;7126;48.458;7.930;2022-11-18T07:41:26;10.30;99.90
14099;DHT22;7126;48.458;7.930;2022-11-18T07:43:57;10.20;99.90
14099;DHT22;7126;48.458;7.930;2022-11-18T07:46:27;10.20;99.90
14099;DHT22;7126;48.458;7.930;2022-11-18T07:48:55;10.20;99.90
14099;DHT22;7126;48.458;7.930;2022-11-18T07:51:24;10.30;99.90
14099;DHT22;7126;48.458;7.930;2022-11-18T07:53:50;10.30;99.90
14099;DHT22;7126;48.458;7.930;2022-11-18T07:56:17;10.30;99.90
14099;DHT22;7126;48.458;7.930;2022-11-18T07:58:43;10.30;99.90
14099;DHT22;7126;48.458;7.930;2022-11-18T08:01:17;10.20;99.90
14099;DHT22;7126;48.458;7.930;2022-11-18T08:03:43;10.20;99.90
14099;DHT22;7126;48.458;7.930;2022-11-18T08:06:11;10.20;99.90
14099;DHT22;7126;48.458;7.930;2022-11-18T08:08:37;10.20;99.90
14099;DHT22;7126;48.458;7.930;2022-11-18T08:11:05;10.20;99.90
14099;DHT22;7126;48.458;7.930;2022-11-18T08:13:31;10.20;99.90
14099;DHT22;7126;48.458;7.930;2022-11-18T08:15:58;10.30;99.90
14099;DHT22;7126;48.458;7.930;2022-11-18T08:18:24;10.30;99.90
14099;DHT22;7126;48.458;7.930;2022-11-18T08:20:50;10.30;99.90
14099;DHT22;7126;48.458;7.930;2022-11-18T08:23:16;10.30;99.90
14099;DHT22;7126;48.458;7.930;2022-11-18T08:25:43;10.10;99.90
14099;DHT22;7126;48.458;7.930;2022-11-18T08:28:09;10.10;99.90
14099;DHT22;7126;48.458;7.930;2022-11-18T08:30:35;10.10;99.90
14099;DHT22;7126;48.458;7.930;2022-11-18T08:33:01;10.00;99.90
14099;DHT22;7126;48.458;7.930;2022-11-18T08:35:28;10.10;99.90
14099;DHT22;7126;48.458;7.930;2022-11-18T08:37:54;10.10;99.90
14099;DHT22;7126;48.458;7.930;2022-11-18T08:40:20;10.20;99.90
14099;DHT22;7126;48.458;7.930;2022-11-18T08:42:46;10.10;99.90
14099;DHT22;7126;48.458;7.930;2022-11-18T08:45:11;10.20;99.90
14099;DHT22;7126;48.458;7.930;2022-11-18T08:47:37;10.20;99.90
14099;DHT22;7126;48.458;7.930;2022-11-18T08:50:04;10.30;99.90
14099;DHT22;7126;48.458;7.930;2022-11-18T08:52:30;10.30;99.90
14099;DHT22;7126;48.458;7.930;2022-11-18T08:54:55;10.30;99.90
14099;DHT22;7126;48.458;7.930;2022-11-18T08:57:21;10.30;99.90
14099;DHT22;7126;48.458;7.930;2022-11-18T08:59:47;10.20;99.90
14099;DHT22;7126;48.458;7.930;2022-11-18T09:02:14;10.30;99.90
14099;DHT22;7126;48.458;7.930;2022-11-18T09:04:40;10.20;99.90
14099;DHT22;7126;48.458;7.930;2022-11-18T09:07:06;10.30;99.90
14099;DHT22;7126;48.458;7.930;2022-11-18T09:09:31;10.30;99.90
14099;DHT22;7126;48.458;7.930;2022-11-18T09:11:57;10.30;99.90
14099;DHT22;7126;48.458;7.930;2022-11-18T09:14:23;10.40;99.90
14099;DHT22;7126;48.458;7.930;2022-11-18T09:16:48;10.40;99.90
14099;DHT22;7126;48.458;7.930;2022-11-18T09:19:15;10.40;99.90
14099;DHT22;7126;48.458;7.930;2022-11-18T09:21:41;10.40;99.90
14099;DHT22;7126;48.458;7.930;2022-11-18T09:24:07;10.40;99.90
14099;DHT22;7126;48.458;7.930;2022-11-18T09:26:33;10.50;99.90
14099;DHT22;7126;48.458;7.930;2022-11-18T09:28:59;10.50;99.90
14099;DHT22;7126;48.458;7.930;2022-11-18T09:31:24;10.60;99.90
14099;DHT22;7126;48.458;7.930;2022-11-18T09:33:50;10.60;99.90
14099;DHT22;7126;48.458;7.930;2022-11-18T09:36:21;10.60;99.90
14099;DHT22;7126;48.458;7.930;2022-11-18T09:38:47;10.60;99.90
14099;DHT22;7126;48.458;7.930;2022-11-18T09:47:03;10.60;99.90
14099;DHT22;7126;48.458;7.930;2022-11-18T09:49:37;10.70;99.90
14099;DHT22;7126;48.458;7.930;2022-11-18T09:52:11;10.70;99.90
14099;DHT22;7126;48.458;7.930;2022-11-18T09:54:40;10.70;99.90
14099;DHT22;7126;48.458;7.930;2022-11-18T09:57:15;10.80;99.90
14099;DHT22;7126;48.458;7.930;2022-11-18T09:59:42;10.90;99.90
14099;DHT22;7126;48.458;7.930;2022-11-18T10:05:49;10.90;99.90
14099;DHT22;7126;48.458;7.930;2022-11-18T10:08:25;10.80;99.90
14099;DHT22;7126;48.458;7.930;2022-11-18T10:13:50;10.80;99.90
14099;DHT22;7126;48.458;7.930;2022-11-18T10:19:23;11.00;99.90
14099;DHT22;7126;48.458;7.930;2022-11-18T10:22:01;11.10;99.90
14099;DHT22;7126;48.458;7.930;2022-11-18T10:24:37;11.10;99.90
14099;DHT22;7126;48.458;7.930;2022-11-18T10:27:11;11.10;99.90
14099;DHT22;7126;48.458;7.930;2022-11-18T10:29:38;11.20;99.90
14099;DHT22;7126;48.458;7.930;2022-11-18T10:32:15;11.20;99.90
14099;DHT22;7126;48.458;7.930;2022-11-18T10:35:00;11.30;99.90
14099;DHT22;7126;48.458;7.930;2022-11-18T10:37:28;11.40;99.90
14099;DHT22;7126;48.458;7.930;2022-11-18T10:39:56;11.40;99.90
14099;DHT22;7126;48.458;7.930;2022-11-18T10:42:36;11.40;99.90
14099;DHT22;7126;48.458;7.930;2022-11-18T10:50:36;11.60;99.90
14099;DHT22;7126;48.458;7.930;2022-11-18T10:53:03;11.60;99.90
14099;DHT22;7126;48.458;7.930;2022-11-18T10:55:30;11.60;99.90
14099;DHT22;7126;48.458;7.930;2022-11-18T10:58:16;11.50;99.90
14099;DHT22;7126;48.458;7.930;2022-11-18T11:00:47;11.50;99.90
14099;DHT22;7126;48.458;7.930;2022-11-18T11:03:33;11.50;99.90
14099;DHT22;7126;48.458;7.930;2022-11-18T11:06:34;11.50;99.90
14099;DHT22;7126;48.458;7.930;2022-11-18T11:11:37;11.40;99.90
14099;DHT22;7126;48.458;7.930;2022-11-18T11:17:37;11.50;99.90
14099;DHT22;7126;48.458;7.930;2022-11-18T11:20:18;11.50;99.90
14099;DHT22;7126;48.458;7.930;2022-11-18T11:22:45;11.60;99.90
14099;DHT22;7126;48.458;7.930;2022-11-18T11:25:29;11.60;99.90
14099;DHT22;7126;48.458;7.930;2022-11-18T11:28:07;11.40;99.90
14099;DHT22;7126;48.458;7.930;2022-11-18T11:30:39;11.40;99.90
14099;DHT22;7126;48.458;7.930;2022-11-18T11:33:22;11.40;99.90
14099;DHT22;7126;48.458;7.930;2022-11-18T11:39:13;11.30;99.90
14099;DHT22;7126;48.458;7.930;2022-11-18T11:41:45;11.30;99.90
14099;DHT22;7126;48.458;7.930;2022-11-18T11:49:53;11.40;99.90
14099;DHT22;7126;48.458;7.930;2022-11-18T11:55:55;11.40;99.90
14099;DHT22;7126;48.458;7.930;2022-11-18T12:06:58;11.00;99.90
14099;DHT22;7126;48.458;7.930;2022-11-18T12:09:45;11.10;99.90
14099;DHT22;7126;48.458;7.930;2022-11-18T12:12:32;11.40;99.90
14099;DHT22;7126;48.458;7.930;2022-11-18T12:15:14;11.70;99.90
14099;DHT22;7126;48.458;7.930;2022-11-18T12:28:08;14.30;99.90
14099;DHT22;7126;48.458;7.930;2022-11-18T12:30:33;14.00;99.90
14099;DHT22;7126;48.458;7.930;2022-11-18T12:32:59;13.60;99.90
14099;DHT22;7126;48.458;7.930;2022-11-18T12:35:27;13.60;99.90
14099;DHT22;7126;48.458;7.930;2022-11-18T12:40:45;14.20;99.90
14099;DHT22;7126;48.458;7.930;2022-11-18T12:48:53;13.20;99.90
14099;DHT22;7126;48.458;7.930;2022-11-18T12:53:50;12.60;99.90
14099;DHT22;7126;48.458;7.930;2022-11-18T13:01:19;12.20;99.90
14099;DHT22;7126;48.458;7.930;2022-11-18T13:03:45;11.90;99.90
14099;DHT22;7126;48.458;7.930;2022-11-18T13:06:22;11.80;99.90
14099;DHT22;7126;48.458;7.930;2022-11-18T13:08:51;11.90;99.90
14099;DHT22;7126;48.458;7.930;2022-11-18T13:11:17;12.10;99.90
14099;DHT22;7126;48.458;7.930;2022-11-18T13:14:03;12.80;99.90
14099;DHT22;7126;48.458;7.930;2022-11-18T13:16:52;13.40;99.90
14099;DHT22;7126;48.458;7.930;2022-11-18T13:19:37;14.70;99.90
14099;DHT22;7126;48.458;7.930;2022-11-18T13:22:02;17.00;99.90
14099;DHT22;7126;48.458;7.930;2022-11-18T13:24:51;18.50;99.90
14099;DHT22;7126;48.458;7.930;2022-11-18T13:30:13;18.90;99.90
14099;DHT22;7126;48.458;7.930;2022-11-18T13:32:46;19.00;99.90
14099;DHT22;7126;48.458;7.930;2022-11-18T13:45:25;27.20;99.90
14099;DHT22;7126;48.458;7.930;2022-11-18T14:00:29;25.50;99.90
14099;DHT22;7126;48.458;7.930;2022-11-18T14:03:47;25.70;92.20
14099;DHT22;7126;48.458;7.930;2022-11-18T14:05:53;23.80;98.00
14099;DHT22;7126;48.458;7.930;2022-11-18T14:10:55;19.10;99.90
14099;DHT22;7126;48.458;7.930;2022-11-18T14:13:28;19.60;99.90
14099;DHT22;7126;48.458;7.930;2022-11-18T14:15:56;18.90;99.90
14099;DHT22;7126;48.458;7.930;2022-11-18T14:18:35;17.80;99.90
14099;DHT22;7126;48.458;7.930;2022-11-18T14:21:03;16.60;99.90
14099;DHT22;7126;48.458;7.930;2022-11-18T14:23:31;15.70;99.90
14099;DHT22;7126;48.458;7.930;2022-11-18T14:25:59;15.00;99.90
14099;DHT22;7126;48.458;7.930;2022-11-18T14:28:32;14.90;99.90
14099;DHT22;7126;48.458;7.930;2022-11-18T14:33:40;15.30;99.90
14099;DHT22;7126;48.458;7.930;2022-11-18T14:36:16;14.60;99.90
14099;DHT22;7126;48.458;7.930;2022-11-18T14:38:49;13.90;99.90
14099;DHT22;7126;48.458;7.930;2022-11-18T14:41:17;13.60;99.90
14099;DHT22;7126;48.458;7.930;2022-11-18T14:44:02;13.40;99.90
14099;DHT22;7126;48.458;7.930;2022-11-18T14:46:27;13.20;99.90
14099;DHT22;7126;48.458;7.930;2022-11-18T14:48:53;13.00;99.90
14099;DHT22;7126;48.458;7.930;2022-11-18T14:51:19;12.80;99.90
14099;DHT22;7126;48.458;7.930;2022-11-18T14:53:44;12.70;99.90
14099;DHT22;7126;48.458;7.930;2022-11-18T14:56:14;12.60;99.90
14099;DHT22;7126;48.458;7.930;2022-11-18T14:58:42;12.50;99.90
14099;DHT22;7126;48.458;7.930;2022-11-18T15:01:10;12.40;99.90
14099;DHT22;7126;48.458;7.930;2022-11-18T15:03:36;12.30;99.90
14099;DHT22;7126;48.458;7.930;2022-11-18T15:06:01;12.30;99.90
14099;DHT22;7126;48.458;7.930;2022-11-18T15:08:27;12.20;99.90
14099;DHT22;7126;48.458;7.930;2022-11-18T15:10:52;12.10;99.90
14099;DHT22;7126;48.458;7.930;2022-11-18T15:13:18;11.90;99.90
14099;DHT22;7126;48.458;7.930;2022-11-18T15:15:43;11.80;99.90
14099;DHT22;7126;48.458;7.930;2022-11-18T15:18:09;11.80;99.90
14099;DHT22;7126;48.458;7.930;2022-11-18T15:20:35;11.70;99.90
14099;DHT22;7126;48.458;7.930;2022-11-18T15:23:00;11.70;99.90
14099;DHT22;7126;48.458;7.930;2022-11-18T15:25:26;11.50;99.90
14099;DHT22;7126;48.458;7.930;2022-11-18T15:27:52;11.50;99.90
14099;DHT22;7126;48.458;7.930;2022-11-18T15:30:18;11.50;99.90
14099;DHT22;7126;48.458;7.930;2022-11-18T15:32:43;11.30;99.90
14099;DHT22;7126;48.458;7.930;2022-11-18T15:35:11;11.20;99.90
14099;DHT22;7126;48.458;7.930;2022-11-18T15:37:37;11.10;99.90
14099;DHT22;7126;48.458;7.930;2022-11-18T15:40:03;11.00;99.90
14099;DHT22;7126;48.458;7.930;2022-11-18T15:42:28;10.90;99.90
14099;DHT22;7126;48.458;7.930;2022-11-18T15:44:54;10.90;99.90
14099;DHT22;7126;48.458;7.930;2022-11-18T15:47:19;10.90;99.90
14099;DHT22;7126;48.458;7.930;2022-11-18T15:49:45;11.00;99.90
14099;DHT22;7126;48.458;7.930;2022-11-18T15:52:11;10.90;99.90
14099;DHT22;7126;48.458;7.930;2022-11-18T15:54:37;10.90;99.90
14099;DHT22;7126;48.458;7.930;2022-11-18T15:57:03;10.90;99.90
14099;DHT22;7126;48.458;7.930;2022-11-18T15:59:29;10.90;99.90
14099;DHT22;7126;48.458;7.930;2022-11-18T16:01:55;11.00;99.90
14099;DHT22;7126;48.458;7.930;2022-11-18T16:04:20;11.00;99.90
14099;DHT22;7126;48.458;7.930;2022-11-18T16:06:46;11.00;99.90
14099;DHT22;7126;48.458;7.930;2022-11-18T16:09:13;10.90;99.90
14099;DHT22;7126;48.458;7.930;2022-11-18T16:11:39;10.80;99.90
14099;DHT22;7126;48.458;7.930;2022-11-18T16:14:23;10.80;99.90
14099;DHT22;7126;48.458;7.930;2022-11-18T16:16:51;10.90;99.90
14099;DHT22;7126;48.458;7.930;2022-11-18T16:19:19;10.90;99.90
14099;DHT22;7126;48.458;7.930;2022-11-18T16:21:47;10.90;99.90
14099;DHT22;7126;48.458;7.930;2022-11-18T16:24:19;10.90;99.90
14099;DHT22;7126;48.458;7.930;2022-11-18T16:26:45;10.90;99.90
14099;DHT22;7126;48.458;7.930;2022-11-18T16:29:12;10.70;99.90
14099;DHT22;7126;48.458;7.930;2022-11-18T16:31:40;10.80;99.90
14099;DHT22;7126;48.458;7.930;2022-11-18T16:36:32;10.70;99.90
14099;DHT22;7126;48.458;7.930;2022-11-18T16:39:03;10.70;99.90
14099;DHT22;7126;48.458;7.930;2022-11-18T16:41:28;10.70;99.90
14099;DHT22;7126;48.458;7.930;2022-11-18T16:43:58;10.70;99.90
14099;DHT22;7126;48.458;7.930;2022-11-18T16:46:25;10.70;99.90
14099;DHT22;7126;48.458;7.930;2022-11-18T16:48:51;10.70;99.90
14099;DHT22;7126;48.458;7.930;2022-11-18T16:51:24;10.70;99.90
14099;DHT22;7126;48.458;7.930;2022-11-18T16:53:51;10.60;99.90
14099;DHT22;7126;48.458;7.930;2022-11-18T16:56:18;10.70;99.90
14099;DHT22;7126;48.458;7.930;2022-11-18T16:58:44;10.70;99.90
14099;DHT22;7126;48.458;7.930;2022-11-18T17:01:10;10.60;99.90
14099;DHT22;7126;48.458;7.930;2022-11-18T17:03:36;10.60;99.90
14099;DHT22;7126;48.458;7.930;2022-11-18T17:06:02;10.60;99.90
14099;DHT22;7126;48.458;7.930;2022-11-18T17:08:27;10.60;99.90
14099;DHT22;7126;48.458;7.930;2022-11-18T17:10:53;10.50;99.90
14099;DHT22;7126;48.458;7.930;2022-11-18T17:13:18;10.50;99.90
14099;DHT22;7126;48.458;7.930;2022-11-18T17:15:44;10.50;99.90
14099;DHT22;7126;48.458;7.930;2022-11-18T17:18:09;10.50;99.90
14099;DHT22;7126;48.458;7.930;2022-11-18T17:20:35;10.50;99.90
14099;DHT22;7126;48.458;7.930;2022-11-18T17:23:00;10.40;99.90
14099;DHT22;7126;48.458;7.930;2022-11-18T17:25:26;10.40;99.90
14099;DHT22;7126;48.458;7.930;2022-11-18T17:27:52;10.40;99.90
14099;DHT22;7126;48.458;7.930;2022-11-18T17:30:17;10.40;99.90
14099;DHT22;7126;48.458;7.930;2022-11-18T17:32:43;10.50;99.90
14099;DHT22;7126;48.458;7.930;2022-11-18T17:35:08;10.50;99.90
14099;DHT22;7126;48.458;7.930;2022-11-18T17:37:34;10.50;99.90
14099;DHT22;7126;48.458;7.930;2022-11-18T17:39:59;10.50;99.90
14099;DHT22;7126;48.458;7.930;2022-11-18T17:42:25;10.50;99.90
14099;DHT22;7126;48.458;7.930;2022-11-18T17:44:51;10.40;99.90
14099;DHT22;7126;48.458;7.930;2022-11-18T17:47:17;10.40;99.90
14099;DHT22;7126;48.458;7.930;2022-11-18T17:49:42;10.40;99.90
14099;DHT22;7126;48.458;7.930;2022-11-18T17:52:08;10.40;99.90
14099;DHT22;7126;48.458;7.930;2022-11-18T17:54:34;10.40;99.90
14099;DHT22;7126;48.458;7.930;2022-11-18T17:56:59;10.40;99.90
14099;DHT22;7126;48.458;7.930;2022-11-18T17:59:25;10.30;99.90
14099;DHT22;7126;48.458;7.930;2022-11-18T18:01:50;10.30;99.90
14099;DHT22;7126;48.458;7.930;2022-11-18T18:04:16;10.30;99.90
14099;DHT22;7126;48.458;7.930;2022-11-18T18:06:49;10.30;99.90
14099;DHT22;7126;48.458;7.930;2022-11-18T18:09:17;10.30;99.90